Time;durP1;ratioP1;P1;durP2;ratioP2;P2;SDS_P1;SDS_P2;PMS_P1;PMS_P2;Temp;Humidity;BMP_temperature;BMP_pressure;BME280_temperature;BME280_humidity;BME280_pressure;Samples;Min_cycle;Max_cycle;Signal;HPM_P1;HPM_P2
2022/09/22 00:02:06;;;;;;;3.63;3.33;;;4.50;99.90;;;;;;6067786;23;20029;-78
2022/09/22 00:04:33;;;;;;;4.15;3.83;;;4.50;99.90;;;;;;6072461;23;20026;-78
2022/09/22 00:07:07;;;;;;;3.95;3.65;;;4.60;99.90;;;;;;6077083;23;20423;-78
2022/09/22 00:09:34;;;;;;;3.28;2.97;;;4.50;99.90;;;;;;6091844;23;20031;-78
2022/09/22 00:12:02;;;;;;;2.40;2.20;;;4.50;99.90;;;;;;6076137;23;20343;-78
2022/09/22 00:14:29;;;;;;;4.28;3.17;;;4.40;99.90;;;;;;6065556;23;20455;-78
2022/09/22 00:17:00;;;;;;;4.82;2.83;;;4.30;99.90;;;;;;6073148;23;20027;-78
2022/09/22 00:19:30;;;;;;;4.70;3.35;;;4.30;99.90;;;;;;6068401;23;20015;-78
2022/09/22 00:21:58;;;;;;;8.10;3.43;;;4.30;99.90;;;;;;6068077;23;20023;-78
2022/09/22 00:24:26;;;;;;;3.75;3.20;;;4.30;99.90;;;;;;6073919;23;20015;-78
2022/09/22 00:26:56;;;;;;;3.70;3.25;;;4.40;99.90;;;;;;6076366;23;20026;-77
2022/09/22 00:29:24;;;;;;;7.43;3.78;;;4.40;99.90;;;;;;6065225;23;20022;-78
2022/09/22 00:31:53;;;;;;;4.03;3.63;;;4.30;99.90;;;;;;6099244;23;20014;-78
2022/09/22 00:34:22;;;;;;;3.10;2.75;;;4.20;99.90;;;;;;6065378;23;20026;-78
2022/09/22 00:36:50;;;;;;;5.28;4.80;;;4.10;99.90;;;;;;6072823;23;20027;-78
2022/09/22 00:39:18;;;;;;;4.28;3.63;;;4.20;99.90;;;;;;6089212;23;20022;-78
2022/09/22 00:41:50;;;;;;;4.65;3.65;;;4.30;99.90;;;;;;6069014;23;20366;-78
2022/09/22 00:44:20;;;;;;;3.92;3.30;;;4.30;99.90;;;;;;6075113;23;20023;-78
2022/09/22 00:46:50;;;;;;;4.70;3.83;;;4.40;99.90;;;;;;6076813;23;20019;-78
2022/09/22 00:49:29;;;;;;;4.30;2.80;;;4.40;99.90;;;;;;6071006;23;20041;-78
2022/09/22 00:51:56;;;;;;;3.17;2.72;;;4.40;99.90;;;;;;6076094;23;20316;-78
2022/09/22 00:54:24;;;;;;;4.78;3.78;;;4.40;99.90;;;;;;6063951;23;20474;-78
2022/09/22 00:57:08;;;;;;;2.90;2.58;;;4.30;99.90;;;;;;6066654;23;20049;-78
2022/09/22 00:59:36;;;;;;;4.45;3.60;;;4.20;99.90;;;;;;6075633;23;20021;-78
2022/09/22 01:02:04;;;;;;;4.45;4.05;;;4.10;99.90;;;;;;6090294;23;20031;-78
2022/09/22 01:04:32;;;;;;;8.05;3.25;;;4.10;99.90;;;;;;6063590;23;20108;-78
2022/09/22 01:07:01;;;;;;;4.05;3.53;;;4.10;99.90;;;;;;6076300;23;20019;-78
2022/09/22 01:09:31;;;;;;;2.88;2.63;;;4.10;99.90;;;;;;6069615;23;20031;-78
2022/09/22 01:12:01;;;;;;;8.02;2.88;;;4.00;99.90;;;;;;6076388;23;20019;-78
2022/09/22 01:15:06;;;;;;;5.50;4.93;;;4.00;99.90;;;;;;6122091;23;20029;-78
2022/09/22 01:17:55;;;;;;;3.15;2.70;;;4.00;99.90;;;;;;6098610;23;20480;-78
2022/09/22 01:20:44;;;;;;;3.05;2.85;;;3.90;99.90;;;;;;6122572;23;20022;-78
2022/09/22 01:23:32;;;;;;;3.28;2.90;;;3.60;99.90;;;;;;6098090;23;20076;-78
2022/09/22 01:26:42;;;;;;;3.65;3.35;;;3.40;99.90;;;;;;6097997;23;20033;-78
2022/09/22 01:29:21;;;;;;;3.33;3.03;;;3.30;99.90;;;;;;6129531;23;20026;-78
2022/09/22 01:32:12;;;;;;;4.60;3.53;;;3.40;99.90;;;;;;6134628;23;20018;-78
2022/09/22 01:34:46;;;;;;;2.85;2.60;;;3.40;99.90;;;;;;6131144;23;20036;-77
2022/09/22 01:37:27;;;;;;;3.22;3.03;;;3.50;99.90;;;;;;6103291;23;20018;-78
2022/09/22 01:40:04;;;;;;;4.25;3.20;;;3.50;99.90;;;;;;6134637;23;20088;-78
2022/09/22 01:42:44;;;;;;;5.72;2.83;;;3.30;99.90;;;;;;6123035;23;20453;-78
2022/09/22 01:45:30;;;;;;;3.78;3.15;;;3.20;99.90;;;;;;6127450;23;20033;-78
2022/09/22 01:48:13;;;;;;;3.75;3.45;;;3.20;99.90;;;;;;6109054;23;20018;-77
2022/09/22 01:50:54;;;;;;;3.10;2.80;;;3.30;99.90;;;;;;6130967;23;20026;-78
2022/09/22 01:53:25;;;;;;;3.97;3.60;;;3.40;99.90;;;;;;6098070;23;20029;-77
2022/09/22 01:55:58;;;;;;;4.13;3.50;;;3.40;99.90;;;;;;6108478;23;20010;-78
2022/09/22 01:58:34;;;;;;;6.10;3.72;;;3.40;99.90;;;;;;6121916;23;20433;-77
2022/09/22 02:01:14;;;;;;;4.30;3.70;;;3.40;99.90;;;;;;6129105;23;20022;-77
2022/09/22 02:03:44;;;;;;;3.05;2.55;;;3.50;99.90;;;;;;6133662;23;20037;-77
2022/09/22 02:06:16;;;;;;;4.35;3.95;;;3.60;99.90;;;;;;6124122;23;20026;-78
2022/09/22 02:08:56;;;;;;;5.20;4.22;;;3.70;99.90;;;;;;6130268;23;20025;-77
2022/09/22 02:11:25;;;;;;;3.95;3.58;;;3.80;99.90;;;;;;6134005;23;20469;-77
2022/09/22 02:13:52;;;;;;;5.95;4.70;;;3.70;99.90;;;;;;6126235;23;20025;-77
2022/09/22 02:16:22;;;;;;;3.53;2.95;;;3.60;99.90;;;;;;6131722;23;20046;-78
2022/09/22 02:19:21;;;;;;;6.05;3.83;;;3.80;99.90;;;;;;6097828;23;20033;-78
2022/09/22 02:21:49;;;;;;;4.70;4.30;;;3.70;99.90;;;;;;6119377;23;20036;-77
2022/09/22 02:24:25;;;;;;;5.03;3.70;;;3.60;99.90;;;;;;6132231;23;20349;-81
2022/09/22 02:26:53;;;;;;;8.45;3.67;;;3.70;99.90;;;;;;6109745;23;20018;-81
2022/09/22 02:29:22;;;;;;;7.70;3.60;;;3.80;99.90;;;;;;6099002;23;20446;-80
2022/09/22 02:31:50;;;;;;;2.78;2.58;;;3.90;99.90;;;;;;6145605;23;20024;-81
2022/09/22 02:34:18;;;;;;;3.38;3.08;;;3.80;99.90;;;;;;6152837;23;20017;-81
2022/09/22 02:37:14;;;;;;;3.00;2.80;;;3.50;99.90;;;;;;6135268;23;20028;-81
2022/09/22 02:39:45;;;;;;;4.80;4.35;;;3.20;99.90;;;;;;6052987;23;20486;-81
2022/09/22 02:42:33;;;;;;;6.47;3.63;;;3.10;99.90;;;;;;6155510;23;20017;-81
2022/09/22 02:45:05;;;;;;;10.05;3.40;;;3.20;99.90;;;;;;6134847;23;20029;-81
2022/09/22 02:47:40;;;;;;;4.00;3.60;;;3.30;99.90;;;;;;6154035;23;20013;-81
2022/09/22 02:50:11;;;;;;;4.78;4.38;;;3.20;99.90;;;;;;6153070;23;20029;-81
2022/09/22 02:52:39;;;;;;;4.07;3.77;;;3.20;99.90;;;;;;6152846;23;20033;-81
2022/09/22 02:55:08;;;;;;;4.15;3.72;;;3.20;99.90;;;;;;6154027;23;20654;-81
2022/09/22 02:57:35;;;;;;;6.72;3.97;;;3.20;99.90;;;;;;6128007;23;20029;-81
2022/09/22 03:00:04;;;;;;;5.35;3.65;;;3.20;99.90;;;;;;6104056;23;20014;-81
2022/09/22 03:02:32;;;;;;;6.07;4.22;;;3.30;99.90;;;;;;6138984;23;20017;-81
2022/09/22 03:04:59;;;;;;;4.57;4.07;;;3.40;99.90;;;;;;6104405;23;20025;-81
2022/09/22 03:07:27;;;;;;;3.83;3.30;;;3.40;99.90;;;;;;6129872;23;20013;-81
2022/09/22 03:09:55;;;;;;;2.88;2.67;;;3.40;99.90;;;;;;6104524;23;20346;-81
2022/09/22 03:12:22;;;;;;;3.20;3.00;;;3.40;99.90;;;;;;6104213;23;20023;-81
2022/09/22 03:14:50;;;;;;;3.30;3.00;;;3.20;99.90;;;;;;6165660;23;20014;-81
2022/09/22 03:17:17;;;;;;;3.50;3.17;;;3.10;99.90;;;;;;6104469;23;20025;-81
2022/09/22 03:19:45;;;;;;;4.13;2.85;;;3.00;99.90;;;;;;6105088;23;20441;-81
2022/09/22 03:22:12;;;;;;;3.60;3.30;;;3.10;99.90;;;;;;6128152;23;20028;-81
2022/09/22 03:24:40;;;;;;;3.00;2.80;;;3.10;99.90;;;;;;6128660;23;20024;-81
2022/09/22 03:27:07;;;;;;;3.85;3.40;;;3.20;99.90;;;;;;6139345;23;20013;-81
2022/09/22 03:29:34;;;;;;;5.60;3.47;;;3.00;99.90;;;;;;6128453;23;20445;-82
2022/09/22 03:32:02;;;;;;;4.05;3.75;;;3.00;99.90;;;;;;6104028;23;20500;-81
2022/09/22 03:34:29;;;;;;;7.00;3.95;;;3.00;99.90;;;;;;6105134;23;20024;-81
2022/09/22 03:37:00;;;;;;;4.63;3.67;;;3.10;99.90;;;;;;6153067;23;20633;-81
2022/09/22 03:39:28;;;;;;;4.80;3.70;;;3.10;99.90;;;;;;6129532;23;20036;-81
2022/09/22 03:41:55;;;;;;;4.13;3.80;;;3.10;99.90;;;;;;6104052;23;20017;-81
2022/09/22 03:44:25;;;;;;;4.30;3.78;;;3.00;99.90;;;;;;6152949;23;20013;-81
2022/09/22 03:46:52;;;;;;;4.15;3.28;;;3.00;99.90;;;;;;6104911;23;20349;-81
2022/09/22 03:49:20;;;;;;;4.22;3.63;;;3.00;99.90;;;;;;6104119;23;20806;-81
2022/09/22 03:51:48;;;;;;;4.93;3.30;;;3.00;99.90;;;;;;6153445;23;20021;-82
2022/09/22 03:54:15;;;;;;;3.95;3.58;;;3.00;99.90;;;;;;6125477;23;20048;-82
2022/09/22 03:56:43;;;;;;;3.00;2.80;;;3.00;99.90;;;;;;6152774;23;20027;-82
2022/09/22 03:59:10;;;;;;;4.95;3.63;;;3.00;99.90;;;;;;6139688;23;20013;-82
2022/09/22 04:01:38;;;;;;;3.47;3.17;;;2.90;99.90;;;;;;6153506;23;20025;-82
2022/09/22 04:04:08;;;;;;;6.50;4.00;;;2.90;99.90;;;;;;6129921;23;20017;-82
2022/09/22 04:06:42;;;;;;;3.92;3.58;;;2.90;99.90;;;;;;6140613;23;20033;-82
2022/09/22 04:09:10;;;;;;;4.90;3.80;;;3.00;99.90;;;;;;6105491;23;20026;-82
2022/09/22 04:11:38;;;;;;;2.97;2.78;;;3.00;99.90;;;;;;6105616;23;20460;-82
2022/09/22 04:14:05;;;;;;;4.82;3.85;;;3.00;99.90;;;;;;6105362;23;20032;-82
2022/09/22 04:16:33;;;;;;;3.90;3.25;;;3.00;99.90;;;;;;6104533;23;20022;-82
2022/09/22 04:19:01;;;;;;;4.18;3.88;;;2.90;99.90;;;;;;6155017;23;20017;-82
2022/09/22 04:21:28;;;;;;;5.20;4.38;;;2.80;99.90;;;;;;6159473;23;20018;-82
2022/09/22 04:23:56;;;;;;;3.40;3.00;;;2.90;99.90;;;;;;6104651;23;20349;-82
2022/09/22 04:26:23;;;;;;;4.47;3.83;;;2.90;99.90;;;;;;6104695;23;20033;-82
2022/09/22 04:28:51;;;;;;;6.20;3.42;;;2.90;99.90;;;;;;6129327;23;20048;-82
2022/09/22 04:31:18;;;;;;;3.95;3.45;;;2.90;99.90;;;;;;6106141;23;20025;-82
2022/09/22 04:33:46;;;;;;;4.40;3.35;;;2.90;99.90;;;;;;6103901;23;20052;-82
2022/09/22 04:36:13;;;;;;;3.53;3.08;;;2.80;99.90;;;;;;6162817;23;20021;-82
2022/09/22 04:38:41;;;;;;;3.30;3.00;;;2.80;99.90;;;;;;6105914;23;20013;-82
2022/09/22 04:41:08;;;;;;;3.63;3.33;;;2.80;99.90;;;;;;6104688;23;20075;-82
2022/09/22 04:43:36;;;;;;;4.78;3.42;;;2.70;99.90;;;;;;6140210;23;20013;-82
2022/09/22 04:46:04;;;;;;;4.43;4.00;;;2.70;99.90;;;;;;6130511;23;20377;-82
2022/09/22 04:48:32;;;;;;;5.47;4.78;;;2.80;99.90;;;;;;6104547;23;20033;-82
2022/09/22 04:51:00;;;;;;;5.40;4.22;;;2.80;99.90;;;;;;6104532;23;20460;-82
2022/09/22 04:53:27;;;;;;;5.57;3.25;;;2.80;99.90;;;;;;6132979;23;20044;-82
2022/09/22 04:55:57;;;;;;;3.78;3.25;;;2.70;99.90;;;;;;6152650;23;20029;-80
2022/09/22 04:58:25;;;;;;;2.90;2.67;;;2.50;99.90;;;;;;6154811;23;20021;-80
2022/09/22 05:00:54;;;;;;;3.55;3.22;;;2.50;99.90;;;;;;6134658;23;20029;-82
2022/09/22 05:03:22;;;;;;;3.58;3.28;;;2.40;99.90;;;;;;6154501;23;20018;-80
2022/09/22 05:05:49;;;;;;;3.55;3.25;;;2.40;99.90;;;;;;6155741;23;20030;-80
2022/09/22 05:08:17;;;;;;;4.38;3.63;;;2.50;99.90;;;;;;6129277;23;20022;-81
2022/09/22 05:10:45;;;;;;;3.40;3.10;;;2.50;99.90;;;;;;6153878;23;20017;-81
2022/09/22 05:13:12;;;;;;;4.38;3.67;;;2.50;99.90;;;;;;6104123;23;20365;-80
2022/09/22 05:15:40;;;;;;;3.63;3.03;;;2.50;99.90;;;;;;6139660;23;20021;-80
2022/09/22 05:18:07;;;;;;;3.38;2.80;;;2.50;99.90;;;;;;6128544;23;20037;-80
2022/09/22 05:20:35;;;;;;;4.22;3.92;;;2.50;99.90;;;;;;6153418;23;20028;-79
2022/09/22 05:23:02;;;;;;;3.67;3.38;;;2.50;99.90;;;;;;6080877;23;20024;-80
2022/09/22 05:25:29;;;;;;;6.95;4.30;;;2.50;99.90;;;;;;6132442;23;20036;-80
2022/09/22 05:27:57;;;;;;;4.40;3.67;;;2.50;99.90;;;;;;6163614;23;20021;-79
2022/09/22 05:30:25;;;;;;;3.45;3.15;;;2.50;99.90;;;;;;6104284;23;20471;-80
2022/09/22 05:32:53;;;;;;;7.68;4.32;;;2.60;99.90;;;;;;6160570;23;20030;-79
2022/09/22 05:35:22;;;;;;;3.88;3.58;;;2.60;99.90;;;;;;6137936;23;20025;-80
2022/09/22 05:37:54;;;;;;;3.58;3.28;;;2.70;99.90;;;;;;6155917;23;20028;-79
2022/09/22 05:40:24;;;;;;;6.03;3.25;;;2.80;99.90;;;;;;6152520;23;20037;-80
2022/09/22 05:42:53;;;;;;;2.80;2.60;;;2.70;99.90;;;;;;6137224;23;20010;-76
2022/09/22 05:45:21;;;;;;;3.72;2.83;;;2.60;99.90;;;;;;6156985;23;20029;-76
2022/09/22 05:47:48;;;;;;;3.80;2.97;;;2.60;99.90;;;;;;6162950;23;20082;-80
2022/09/22 05:50:17;;;;;;;3.53;3.15;;;2.50;99.90;;;;;;6103426;23;20468;-80
2022/09/22 05:52:45;;;;;;;3.20;2.72;;;2.50;99.90;;;;;;6103526;23;20052;-80
2022/09/22 05:55:13;;;;;;;4.68;3.50;;;2.60;99.90;;;;;;6103687;23;20014;-80
2022/09/22 05:57:40;;;;;;;4.13;3.83;;;2.60;99.90;;;;;;6103188;23;20025;-80
2022/09/22 06:00:09;;;;;;;5.43;4.93;;;2.70;99.90;;;;;;6162228;23;20014;-80
2022/09/22 06:02:42;;;;;;;6.22;4.75;;;2.80;99.90;;;;;;6115221;23;20025;-80
2022/09/22 06:05:15;;;;;;;5.40;4.55;;;2.90;99.90;;;;;;6127621;23;20026;-80
2022/09/22 06:08:01;;;;;;;4.80;4.35;;;3.10;99.90;;;;;;6105118;23;20021;-80
2022/09/22 06:10:30;;;;;;;5.85;5.22;;;3.30;99.90;;;;;;6103425;23;20025;-81
2022/09/22 06:12:59;;;;;;;5.80;4.85;;;3.50;99.90;;;;;;6150497;23;20033;-81
2022/09/22 06:15:34;;;;;;;4.65;4.25;;;3.70;99.90;;;;;;6138872;23;20441;-81
2022/09/22 06:18:06;;;;;;;6.85;5.25;;;3.90;99.90;;;;;;6127910;23;20345;-81
2022/09/22 06:20:42;;;;;;;5.07;4.57;;;4.10;99.90;;;;;;6101861;23;20025;-82
2022/09/22 06:23:12;;;;;;;5.43;4.57;;;4.50;99.90;;;;;;6128179;23;20021;-82
2022/09/22 06:25:42;;;;;;;7.25;4.45;;;5.10;99.90;;;;;;6151395;23;20033;-82
2022/09/22 06:28:13;;;;;;;3.95;3.65;;;5.60;99.90;;;;;;6151890;23;20507;-82
2022/09/22 06:30:41;;;;;;;5.83;5.00;;;5.90;99.90;;;;;;6081133;23;20021;-82
2022/09/22 06:33:10;;;;;;;4.55;4.15;;;6.20;99.90;;;;;;6104034;23;20033;-82
2022/09/22 06:35:41;;;;;;;6.35;3.75;;;6.40;99.90;;;;;;6103768;23;20028;-82
2022/09/22 06:38:11;;;;;;;;;;;6.60;99.90;;;;;;6103775;23;20406;-83
2022/09/22 06:40:40;;;;;;;4.70;4.25;;;6.90;99.90;;;;;;6152857;23;19923;-82
2022/09/22 06:43:21;;;;;;;3.85;3.30;;;7.20;99.90;;;;;;6128408;23;20037;-82
2022/09/22 06:45:50;;;;;;;;;;;7.30;99.90;;;;;;6153341;23;20049;-82
2022/09/22 06:48:20;;;;;;;6.20;3.53;;;7.50;99.90;;;;;;6153448;23;19916;-82
2022/09/22 06:50:50;;;;;;;4.30;3.92;;;7.40;99.90;;;;;;6153096;23;20321;-82
2022/09/22 06:53:19;;;;;;;3.67;3.33;;;7.60;99.90;;;;;;6079934;23;20025;-82
2022/09/22 06:55:50;;;;;;;5.70;4.15;;;7.80;99.90;;;;;;6151510;23;20341;-82
2022/09/22 06:58:21;;;;;;;4.13;3.33;;;7.90;99.90;;;;;;6125862;23;20405;-82
2022/09/22 07:00:49;;;;;;;7.72;3.67;;;7.90;99.90;;;;;;6091495;23;20022;-82
2022/09/22 07:03:21;;;;;;;4.93;4.35;;;7.90;99.90;;;;;;6093362;23;20029;-82
2022/09/22 07:05:59;;;;;;;5.57;3.75;;;7.90;99.90;;;;;;6092307;23;20030;-82
2022/09/22 07:08:33;;;;;;;5.28;4.07;;;7.90;99.90;;;;;;6092554;23;20457;-82
2022/09/22 07:11:06;;;;;;;4.47;4.07;;;8.00;99.90;;;;;;6091868;23;20027;-82
2022/09/22 07:13:41;;;;;;;3.63;3.33;;;8.00;99.90;;;;;;6091898;23;20034;-82
2022/09/22 07:16:16;;;;;;;4.20;3.90;;;8.20;99.90;;;;;;6069481;23;20023;-82
2022/09/22 07:18:49;;;;;;;4.28;3.90;;;8.30;99.90;;;;;;6093306;23;20033;-82
2022/09/22 07:21:26;;;;;;;3.92;3.63;;;8.40;99.90;;;;;;6121519;23;20030;-82
2022/09/22 07:23:56;;;;;;;5.00;3.85;;;8.40;99.90;;;;;;6124542;23;20014;-83
2022/09/22 07:26:29;;;;;;;5.93;4.90;;;8.50;99.90;;;;;;6102942;23;20032;-82
2022/09/22 07:28:59;;;;;;;3.75;3.45;;;8.50;99.90;;;;;;6104098;23;20022;-83
2022/09/22 07:31:29;;;;;;;3.42;3.13;;;8.50;99.90;;;;;;6080358;23;20029;-83
2022/09/22 07:34:00;;;;;;;3.58;3.25;;;8.60;99.90;;;;;;6103588;23;20472;-83
2022/09/22 07:37:07;;;;;;;3.50;3.20;;;8.60;99.90;;;;;;6090903;23;20021;-83
2022/09/22 07:39:35;;;;;;;3.42;2.50;;;8.80;99.90;;;;;;6105975;23;20311;-83
2022/09/22 07:42:04;;;;;;;3.28;3.05;;;8.90;99.90;;;;;;6129041;23;20076;-83
2022/09/22 07:50:16;;;;;;;3.20;2.90;;;9.40;99.90;;;;;;6154997;23;20022;-83
2022/09/22 07:52:50;;;;;;;3.47;3.17;;;9.20;99.90;;;;;;6153691;23;20021;-83
2022/09/22 07:55:23;;;;;;;3.03;2.72;;;9.30;99.90;;;;;;6130537;23;20013;-83
2022/09/22 07:57:57;;;;;;;2.00;1.80;;;9.40;99.90;;;;;;6104974;23;20476;-83
2022/09/22 08:00:31;;;;;;;3.80;3.10;;;9.40;99.90;;;;;;6105064;23;20361;-84
2022/09/22 08:03:00;;;;;;;4.25;2.85;;;9.40;99.90;;;;;;6129548;23;20025;-82
2022/09/22 08:05:28;;;;;;;2.35;2.15;;;9.60;99.90;;;;;;6159700;23;20026;-81
2022/09/22 08:08:01;;;;;;;5.57;3.42;;;9.70;99.90;;;;;;6154620;23;20804;-81
2022/09/22 08:10:31;;;;;;;5.80;2.83;;;9.40;99.90;;;;;;6151824;23;20022;-77
2022/09/22 08:12:59;;;;;;;5.50;3.38;;;9.80;99.90;;;;;;6150107;23;20018;-79
2022/09/22 08:15:26;;;;;;;4.47;2.08;;;10.10;99.90;;;;;;6103779;23;20017;-79
2022/09/22 08:17:57;;;;;;;6.80;3.00;;;10.20;99.90;;;;;;6127162;23;20052;-79
2022/09/22 08:20:28;;;;;;;2.75;2.50;;;10.20;99.90;;;;;;6151533;23;20018;-82
2022/09/22 08:23:04;;;;;;;1.83;1.73;;;10.30;99.90;;;;;;6154934;23;20021;-82
2022/09/22 08:25:33;;;;;;;2.97;1.98;;;10.30;99.90;;;;;;6105088;23;20029;-81
2022/09/22 08:28:04;;;;;;;2.22;1.98;;;10.30;99.90;;;;;;6116465;23;20024;-83
2022/09/22 08:31:14;;;;;;;2.00;1.88;;;10.40;99.90;;;;;;6130484;23;20021;-81
2022/09/22 08:33:47;;;;;;;2.20;2.10;;;10.30;99.90;;;;;;6063550;23;20037;-82
2022/09/22 08:36:16;;;;;;;1.70;1.50;;;10.40;99.90;;;;;;6098492;23;20021;-82
2022/09/22 08:39:08;;;;;;;2.58;1.95;;;10.50;99.90;;;;;;6158400;23;20369;-81
2022/09/22 08:42:42;;;;;;;1.38;1.17;;;10.40;99.90;;;;;;6118427;23;20021;-81
2022/09/22 08:45:45;;;;;;;3.10;1.30;;;10.50;99.90;;;;;;6142152;23;20017;-81
2022/09/22 08:52:29;;;;;;;1.92;1.75;;;10.60;99.90;;;;;;6191344;23;20072;-81
2022/09/22 08:54:58;;;;;;;1.52;1.42;;;10.70;99.90;;;;;;6109586;23;20020;-82
2022/09/22 08:57:48;;;;;;;2.05;1.63;;;10.80;99.90;;;;;;6115377;23;20026;-81
2022/09/22 09:00:34;;;;;;;2.30;1.80;;;10.80;99.90;;;;;;6152741;23;20025;-82
2022/09/22 09:03:48;;;;;;;1.88;1.50;;;11.00;99.90;;;;;;6107668;23;20021;-83
2022/09/22 09:07:11;;;;;;;7.63;2.47;;;10.90;99.90;;;;;;6154109;23;20040;-81
2022/09/22 09:10:03;;;;;;;2.28;1.67;;;11.00;99.90;;;;;;6097500;23;20029;-83
2022/09/22 09:13:09;;;;;;;2.28;2.08;;;11.10;99.90;;;;;;6061066;23;20026;-82
2022/09/22 09:16:21;;;;;;;1.75;1.38;;;11.10;99.90;;;;;;6128154;23;20061;-83
2022/09/22 09:18:56;;;;;;;1.45;1.35;;;11.00;99.90;;;;;;6086775;23;20431;-82
2022/09/22 09:21:24;;;;;;;2.15;2.00;;;11.10;99.90;;;;;;6101135;23;20488;-79
2022/09/22 09:23:58;;;;;;;1.08;1.08;;;11.20;99.90;;;;;;6098951;23;20554;-79
2022/09/22 09:26:47;;;;;;;1.63;1.50;;;11.30;99.90;;;;;;6083380;23;20022;-80
2022/09/22 09:29:21;;;;;;;1.52;1.42;;;11.40;99.90;;;;;;6074916;23;20022;-80
2022/09/22 09:31:54;;;;;;;2.28;2.03;;;11.50;99.90;;;;;;6123034;23;20022;-80
2022/09/22 09:34:27;;;;;;;1.70;1.60;;;11.50;99.90;;;;;;6098511;23;20025;-80
2022/09/22 09:37:12;;;;;;;2.58;1.48;;;11.60;99.90;;;;;;6104892;23;20022;-80
2022/09/22 09:39:46;;;;;;;1.50;1.40;;;11.50;99.90;;;;;;6118893;23;20018;-79
2022/09/22 09:42:35;;;;;;;1.65;1.55;;;11.70;99.90;;;;;;6151114;23;20025;-80
2022/09/22 09:45:11;;;;;;;1.20;1.20;;;11.50;99.90;;;;;;6143211;23;20037;-84
2022/09/22 09:48:06;;;;;;;2.13;1.85;;;11.50;99.90;;;;;;6106160;23;20028;-84
2022/09/22 09:50:40;;;;;;;2.67;2.50;;;11.70;99.90;;;;;;6058731;23;20025;-82
2022/09/22 09:53:33;;;;;;;1.58;1.48;;;11.90;99.90;;;;;;6130786;23;20026;-84
2022/09/22 09:56:28;;;;;;;1.95;1.38;;;12.00;99.90;;;;;;6098182;23;20029;-85
2022/09/22 10:01:53;;;;;;;1.23;1.23;;;12.20;99.90;;;;;;6155009;23;20021;-83
2022/09/22 10:04:36;;;;;;;1.65;1.27;;;12.20;99.90;;;;;;6143656;23;20873;-84
2022/09/22 10:07:15;;;;;;;1.98;1.50;;;12.20;99.90;;;;;;6068928;23;20025;-84
2022/09/22 10:09:57;;;;;;;1.83;1.23;;;12.40;99.90;;;;;;6095995;23;20026;-84
2022/09/22 10:12:52;;;;;;;3.40;1.95;;;12.50;99.90;;;;;;6067712;23;20026;-84
2022/09/22 10:15:28;;;;;;;9.45;2.53;;;12.60;99.90;;;;;;6102501;23;20026;-83
2022/09/22 10:18:25;;;;;;;3.30;1.42;;;12.50;99.90;;;;;;6040932;23;20355;-83
2022/09/22 10:21:18;;;;;;;1.95;1.25;;;12.60;99.90;;;;;;6010599;23;20030;-84
2022/09/22 10:24:30;;;;;;;2.40;1.65;;;12.60;99.90;;;;;;6037833;23;20465;-83
2022/09/22 10:28:27;;;;;;;1.95;1.85;;;12.50;99.90;;;;;;6052874;23;20026;-83
2022/09/22 10:31:02;;;;;;;1.65;1.55;;;12.70;99.90;;;;;;6052378;23;20041;-83
2022/09/22 10:33:34;;;;;;;1.80;1.70;;;12.60;99.90;;;;;;6117142;23;20026;-83
2022/09/22 10:36:10;;;;;;;1.80;1.70;;;13.00;99.90;;;;;;6098872;23;20330;-83
2022/09/22 10:39:20;;;;;;;1.92;1.83;;;13.00;99.90;;;;;;6123783;23;20025;-82
2022/09/22 10:42:35;;;;;;;6.40;3.13;;;12.80;99.90;;;;;;6123798;23;20022;-83
2022/09/22 10:45:38;;;;;;;2.03;1.80;;;12.80;99.90;;;;;;6122591;23;20026;-83
2022/09/22 10:48:46;;;;;;;1.55;1.45;;;13.00;99.90;;;;;;6099017;23;20021;-84
2022/09/22 10:52:01;;;;;;;2.00;1.80;;;13.10;99.90;;;;;;6098333;23;20053;-83
2022/09/22 10:55:20;;;;;;;1.75;1.58;;;13.10;99.90;;;;;;6116696;23;20026;-83
2022/09/22 10:58:39;;;;;;;4.63;1.40;;;13.10;99.90;;;;;;6087798;23;20017;-84
2022/09/22 11:02:01;;;;;;;2.75;1.63;;;13.20;99.90;;;;;;6147875;23;20029;-84
2022/09/22 11:12:49;;;;;;;1.63;1.38;;;13.30;99.90;;;;;;6100461;23;20026;-84
2022/09/22 11:15:43;;;;;;;1.60;1.27;;;13.40;99.90;;;;;;6158293;23;20032;-88
2022/09/22 11:18:49;;;;;;;2.30;1.45;;;13.40;99.90;;;;;;6144028;23;20346;-83
2022/09/22 11:22:13;;;;;;;1.48;1.38;;;13.30;99.90;;;;;;6146802;23;20350;-84
2022/09/22 11:25:05;;;;;;;2.42;1.38;;;13.30;99.90;;;;;;6089869;23;20030;-84
2022/09/22 11:27:48;;;;;;;1.48;1.38;;;13.30;99.90;;;;;;6099652;23;20022;-83
2022/09/22 11:30:50;;;;;;;1.85;1.48;;;13.50;99.90;;;;;;6048452;23;20049;-84
2022/09/22 11:41:44;;;;;;;1.60;1.50;;;13.60;99.90;;;;;;6041736;23;20030;-84
2022/09/22 11:45:35;;;;;;;2.58;1.65;;;13.60;99.90;;;;;;6050587;23;20023;-85
2022/09/22 11:48:38;;;;;;;1.17;1.03;;;13.70;99.90;;;;;;6063664;23;20019;-83
2022/09/22 11:51:24;;;;;;;1.30;1.20;;;13.80;99.90;;;;;;6063866;23;20274;-83
2022/09/22 11:54:24;;;;;;;1.50;1.35;;;13.60;99.90;;;;;;6067721;23;20027;-83
2022/09/22 11:57:48;;;;;;;1.17;1.08;;;13.60;99.90;;;;;;6058706;23;20030;-84
2022/09/22 12:00:28;;;;;;;1.27;1.17;;;13.60;99.90;;;;;;6054882;23;20022;-83
2022/09/22 12:03:38;;;;;;;1.50;1.40;;;13.70;99.90;;;;;;6087890;23;20015;-84
2022/09/22 12:06:20;;;;;;;2.63;1.70;;;13.60;99.90;;;;;;5974342;23;20030;-82
2022/09/22 12:10:54;;;;;;;5.70;1.75;;;13.70;99.90;;;;;;6006553;23;20495;-84
2022/09/22 12:15:06;;;;;;;2.00;1.83;;;14.00;99.90;;;;;;6000655;23;20019;-83
2022/09/22 12:23:43;;;;;;;1.90;1.80;;;14.00;99.90;;;;;;6093420;23;20442;-84
2022/09/22 12:27:16;;;;;;;2.15;1.90;;;13.90;99.90;;;;;;6048735;23;20439;-83
2022/09/22 12:30:03;;;;;;;2.03;1.80;;;14.10;99.90;;;;;;6077762;23;20037;-83
2022/09/22 12:32:51;;;;;;;1.63;1.52;;;14.00;99.90;;;;;;6050538;23;20073;-83
2022/09/22 12:35:29;;;;;;;1.77;1.67;;;14.00;99.90;;;;;;6110180;23;20030;-82
2022/09/22 12:38:44;;;;;;;2.28;2.08;;;14.00;99.90;;;;;;6107274;23;20068;-84
2022/09/22 12:41:19;;;;;;;1.60;1.48;;;13.90;99.90;;;;;;6096866;23;20439;-84
2022/09/22 12:48:19;;;;;;;2.75;1.63;;;13.80;99.90;;;;;;6076791;23;20362;-82
2022/09/22 12:51:00;;;;;;;;;;;;;;;;;;;;;
2022/09/22 12:53:39;;;;;;;1.50;1.40;;;14.00;99.90;;;;;;6080024;23;20128;-83
2022/09/22 12:56:28;;;;;;;;;;;14.00;99.90;;;;;;6042544;23;20023;-84
2022/09/22 12:59:40;;;;;;;4.15;2.97;;;14.00;99.90;;;;;;6040219;23;20350;-84
2022/09/22 13:02:26;;;;;;;1.92;1.83;;;13.90;99.90;;;;;;6017503;23;20046;-84
2022/09/22 13:04:57;;;;;;;2.00;1.90;;;13.70;99.90;;;;;;6043198;23;20034;-82
2022/09/22 13:08:15;;;;;;;2.13;2.00;;;13.60;99.90;;;;;;6018028;23;20015;-83
2022/09/22 13:10:50;;;;;;;2.00;1.90;;;13.80;99.90;;;;;;5975570;23;20324;-84
2022/09/22 13:13:31;;;;;;;3.28;1.65;;;13.90;99.90;;;;;;6039320;23;20022;-83
2022/09/22 13:16:21;;;;;;;2.28;2.08;;;14.00;99.90;;;;;;6018078;23;20023;-83
2022/09/22 13:18:51;;;;;;;2.10;1.85;;;14.10;99.90;;;;;;6017980;23;20023;-84
2022/09/22 13:21:27;;;;;;;2.75;2.55;;;14.20;99.90;;;;;;6037807;23;20030;-84
2022/09/22 13:23:56;;;;;;;2.45;2.25;;;14.10;99.90;;;;;;6026341;23;20022;-82
2022/09/22 13:26:51;;;;;;;2.28;1.80;;;14.00;99.90;;;;;;6040411;23;20067;-83
2022/09/22 13:29:55;;;;;;;4.63;2.05;;;14.00;99.90;;;;;;6019328;23;20030;-84
2022/09/22 13:32:31;;;;;;;2.33;1.40;;;14.10;99.90;;;;;;5994485;23;20026;-85
2022/09/22 13:34:58;;;;;;;3.28;2.30;;;14.20;99.90;;;;;;6050793;23;20015;-83
2022/09/22 13:37:58;;;;;;;2.08;1.88;;;14.20;99.90;;;;;;6017736;23;20031;-84
2022/09/22 13:40:30;;;;;;;2.60;2.28;;;14.20;99.90;;;;;;6094560;23;20022;-84
2022/09/22 13:43:02;;;;;;;1.20;1.20;;;14.10;99.90;;;;;;6094611;23;20699;-83
2022/09/22 13:45:32;;;;;;;2.10;1.50;;;14.10;99.90;;;;;;6070809;23;20018;-85
2022/09/22 13:48:12;;;;;;;1.58;1.48;;;14.20;99.90;;;;;;6104270;23;20363;-83
2022/09/22 13:51:16;;;;;;;1.63;1.38;;;14.20;99.90;;;;;;6105731;23;20014;-84
2022/09/22 13:54:08;;;;;;;1.50;1.25;;;14.20;99.90;;;;;;6074608;23;20026;-83
2022/09/22 13:56:36;;;;;;;1.27;1.17;;;14.40;99.90;;;;;;6125889;23;20038;-84
2022/09/22 13:59:09;;;;;;;1.52;1.42;;;14.40;99.90;;;;;;6104692;23;20021;-84
2022/09/22 14:01:50;;;;;;;1.70;1.38;;;14.30;99.90;;;;;;6097178;23;20033;-85
2022/09/22 14:04:23;;;;;;;1.60;1.50;;;14.40;99.90;;;;;;6102838;23;20018;-84
2022/09/22 14:07:01;;;;;;;1.70;1.50;;;14.40;99.90;;;;;;6071693;23;20026;-84
2022/09/22 14:09:34;;;;;;;1.85;1.38;;;14.60;99.90;;;;;;6122941;23;20018;-84
2022/09/22 14:12:03;;;;;;;3.85;1.38;;;14.60;99.90;;;;;;6117972;23;20023;-83
2022/09/22 14:14:31;;;;;;;1.38;1.27;;;14.50;99.90;;;;;;6095655;23;20018;-83
2022/09/22 14:17:04;;;;;;;1.10;1.10;;;14.50;99.90;;;;;;6094155;23;20805;-85
2022/09/22 14:19:56;;;;;;;1.60;1.50;;;14.40;99.90;;;;;;6087884;23;20468;-84
2022/09/22 14:22:41;;;;;;;3.25;1.80;;;14.50;99.90;;;;;;6074719;23;20026;-84
2022/09/22 14:25:19;;;;;;;1.50;1.10;;;14.50;99.90;;;;;;6098945;23;20033;-84
2022/09/22 14:27:59;;;;;;;1.38;1.05;;;14.60;99.90;;;;;;6123895;23;20022;-84
2022/09/22 14:30:29;;;;;;;1.17;1.00;;;14.70;99.90;;;;;;6147891;23;20033;-84
2022/09/22 14:33:01;;;;;;;1.40;1.30;;;14.70;99.90;;;;;;6123937;23;20026;-84
2022/09/22 14:35:31;;;;;;;1.40;1.00;;;14.70;99.90;;;;;;6100394;23;20040;-84